sensor_id;sensor_type;location;lat;lon;timestamp;temperature;humidity
4509;DHT22;2267;48.816;9.230;2023-01-05T00:01:10;11.50;99.90
4509;DHT22;2267;48.816;9.230;2023-01-05T00:03:37;11.50;99.90
4509;DHT22;2267;48.816;9.230;2023-01-05T00:06:06;11.50;99.90
4509;DHT22;2267;48.816;9.230;2023-01-05T00:08:33;11.50;99.90
4509;DHT22;2267;48.816;9.230;2023-01-05T00:13:50;11.50;99.90
4509;DHT22;2267;48.816;9.230;2023-01-05T00:16:35;11.60;99.90
4509;DHT22;2267;48.816;9.230;2023-01-05T00:19:21;11.60;99.90
4509;DHT22;2267;48.816;9.230;2023-01-05T00:22:23;11.50;99.90
4509;DHT22;2267;48.816;9.230;2023-01-05T00:25:07;11.60;99.90
4509;DHT22;2267;48.816;9.230;2023-01-05T00:27:39;11.50;99.90
4509;DHT22;2267;48.816;9.230;2023-01-05T00:30:08;11.60;99.90
4509;DHT22;2267;48.816;9.230;2023-01-05T00:32:35;11.60;99.90
4509;DHT22;2267;48.816;9.230;2023-01-05T00:35:04;11.60;99.90
4509;DHT22;2267;48.816;9.230;2023-01-05T00:37:33;11.60;99.90
4509;DHT22;2267;48.816;9.230;2023-01-05T00:40:00;11.60;99.90
4509;DHT22;2267;48.816;9.230;2023-01-05T00:42:27;11.60;99.90
4509;DHT22;2267;48.816;9.230;2023-01-05T00:44:54;11.60;99.90
4509;DHT22;2267;48.816;9.230;2023-01-05T00:47:20;11.60;99.90
4509;DHT22;2267;48.816;9.230;2023-01-05T00:49:47;11.60;99.90
4509;DHT22;2267;48.816;9.230;2023-01-05T00:52:14;11.60;99.90
4509;DHT22;2267;48.816;9.230;2023-01-05T00:54:41;11.70;99.90
4509;DHT22;2267;48.816;9.230;2023-01-05T00:57:12;11.60;99.90
4509;DHT22;2267;48.816;9.230;2023-01-05T00:59:39;11.60;99.90
4509;DHT22;2267;48.816;9.230;2023-01-05T01:02:06;11.60;99.90
4509;DHT22;2267;48.816;9.230;2023-01-05T01:04:34;11.60;99.90
4509;DHT22;2267;48.816;9.230;2023-01-05T01:07:01;11.70;99.90
4509;DHT22;2267;48.816;9.230;2023-01-05T01:09:28;11.60;99.90
4509;DHT22;2267;48.816;9.230;2023-01-05T01:11:55;11.60;99.90
4509;DHT22;2267;48.816;9.230;2023-01-05T01:14:22;11.70;99.90
4509;DHT22;2267;48.816;9.230;2023-01-05T01:16:49;11.70;99.90
4509;DHT22;2267;48.816;9.230;2023-01-05T01:19:18;11.70;99.90
4509;DHT22;2267;48.816;9.230;2023-01-05T01:21:45;11.70;99.90
4509;DHT22;2267;48.816;9.230;2023-01-05T01:24:16;11.70;99.90
4509;DHT22;2267;48.816;9.230;2023-01-05T01:26:43;11.70;99.90
4509;DHT22;2267;48.816;9.230;2023-01-05T01:29:10;11.70;99.90
4509;DHT22;2267;48.816;9.230;2023-01-05T01:31:37;11.70;99.90
4509;DHT22;2267;48.816;9.230;2023-01-05T01:34:04;11.70;99.90
4509;DHT22;2267;48.816;9.230;2023-01-05T01:36:31;11.70;99.90
4509;DHT22;2267;48.816;9.230;2023-01-05T01:38:58;11.70;99.90
4509;DHT22;2267;48.816;9.230;2023-01-05T01:41:25;11.70;99.90
4509;DHT22;2267;48.816;9.230;2023-01-05T01:43:54;11.70;99.90
4509;DHT22;2267;48.816;9.230;2023-01-05T01:46:23;11.70;99.90
4509;DHT22;2267;48.816;9.230;2023-01-05T01:48:59;11.70;99.90
4509;DHT22;2267;48.816;9.230;2023-01-05T01:51:33;11.70;99.90
4509;DHT22;2267;48.816;9.230;2023-01-05T01:54:04;11.70;99.90
4509;DHT22;2267;48.816;9.230;2023-01-05T01:56:40;11.70;99.90
4509;DHT22;2267;48.816;9.230;2023-01-05T01:59:08;11.70;99.90
4509;DHT22;2267;48.816;9.230;2023-01-05T02:01:35;11.70;99.90
4509;DHT22;2267;48.816;9.230;2023-01-05T02:04:03;11.70;99.90
4509;DHT22;2267;48.816;9.230;2023-01-05T02:06:30;11.70;99.90
4509;DHT22;2267;48.816;9.230;2023-01-05T02:08:57;11.80;99.90
4509;DHT22;2267;48.816;9.230;2023-01-05T02:17:24;11.80;99.90
4509;DHT22;2267;48.816;9.230;2023-01-05T02:22:50;11.70;99.90
4509;DHT22;2267;48.816;9.230;2023-01-05T02:25:36;11.80;99.90
4509;DHT22;2267;48.816;9.230;2023-01-05T02:31:19;11.80;99.90
4509;DHT22;2267;48.816;9.230;2023-01-05T02:34:05;11.80;99.90
4509;DHT22;2267;48.816;9.230;2023-01-05T02:36:54;11.80;99.90
4509;DHT22;2267;48.816;9.230;2023-01-05T02:39:35;11.80;99.90
4509;DHT22;2267;48.816;9.230;2023-01-05T02:42:14;11.80;99.90
4509;DHT22;2267;48.816;9.230;2023-01-05T02:44:43;11.80;99.90
4509;DHT22;2267;48.816;9.230;2023-01-05T02:50:08;11.80;99.90
4509;DHT22;2267;48.816;9.230;2023-01-05T02:55:14;11.90;99.90
4509;DHT22;2267;48.816;9.230;2023-01-05T02:57:51;11.90;99.90
4509;DHT22;2267;48.816;9.230;2023-01-05T03:00:43;11.90;99.90
4509;DHT22;2267;48.816;9.230;2023-01-05T03:03:37;11.90;99.90
4509;DHT22;2267;48.816;9.230;2023-01-05T03:06:10;11.90;99.90
4509;DHT22;2267;48.816;9.230;2023-01-05T03:08:48;11.90;99.90
4509;DHT22;2267;48.816;9.230;2023-01-05T03:11:17;11.90;99.90
4509;DHT22;2267;48.816;9.230;2023-01-05T03:14:14;11.90;99.90
4509;DHT22;2267;48.816;9.230;2023-01-05T03:16:44;11.90;99.90
4509;DHT22;2267;48.816;9.230;2023-01-05T03:19:15;11.90;99.90
4509;DHT22;2267;48.816;9.230;2023-01-05T03:22:10;11.90;99.90
4509;DHT22;2267;48.816;9.230;2023-01-05T03:24:57;11.90;99.90
4509;DHT22;2267;48.816;9.230;2023-01-05T03:27:44;11.90;99.90
4509;DHT22;2267;48.816;9.230;2023-01-05T03:30:58;11.90;99.90
4509;DHT22;2267;48.816;9.230;2023-01-05T03:37:09;11.90;99.90
4509;DHT22;2267;48.816;9.230;2023-01-05T03:39:40;11.90;99.90
4509;DHT22;2267;48.816;9.230;2023-01-05T03:42:09;11.90;99.90
4509;DHT22;2267;48.816;9.230;2023-01-05T03:44:38;11.90;99.90
4509;DHT22;2267;48.816;9.230;2023-01-05T03:47:05;11.90;99.90
4509;DHT22;2267;48.816;9.230;2023-01-05T03:49:32;11.90;99.90
4509;DHT22;2267;48.816;9.230;2023-01-05T03:51:59;11.90;99.90
4509;DHT22;2267;48.816;9.230;2023-01-05T03:54:25;12.00;99.90
4509;DHT22;2267;48.816;9.230;2023-01-05T03:56:52;12.00;99.90
4509;DHT22;2267;48.816;9.230;2023-01-05T03:59:19;12.00;99.90
4509;DHT22;2267;48.816;9.230;2023-01-05T04:01:46;12.00;99.90
4509;DHT22;2267;48.816;9.230;2023-01-05T04:04:13;12.00;99.90
4509;DHT22;2267;48.816;9.230;2023-01-05T04:06:40;12.10;99.90
4509;DHT22;2267;48.816;9.230;2023-01-05T04:09:07;12.10;99.90
4509;DHT22;2267;48.816;9.230;2023-01-05T04:11:34;12.10;99.90
4509;DHT22;2267;48.816;9.230;2023-01-05T04:14:00;12.10;99.90
4509;DHT22;2267;48.816;9.230;2023-01-05T04:16:27;12.10;99.90
4509;DHT22;2267;48.816;9.230;2023-01-05T04:18:54;12.10;99.90
4509;DHT22;2267;48.816;9.230;2023-01-05T04:21:21;12.10;99.90
4509;DHT22;2267;48.816;9.230;2023-01-05T04:23:48;12.10;99.90
4509;DHT22;2267;48.816;9.230;2023-01-05T04:26:14;12.60;99.90
4509;DHT22;2267;48.816;9.230;2023-01-05T04:28:41;12.10;99.90
4509;DHT22;2267;48.816;9.230;2023-01-05T04:31:08;12.10;99.90
4509;DHT22;2267;48.816;9.230;2023-01-05T04:33:34;12.10;99.90
4509;DHT22;2267;48.816;9.230;2023-01-05T04:36:02;12.20;99.90
4509;DHT22;2267;48.816;9.230;2023-01-05T04:38:28;12.20;99.90
4509;DHT22;2267;48.816;9.230;2023-01-05T04:40:55;12.20;99.90
4509;DHT22;2267;48.816;9.230;2023-01-05T04:43:22;12.20;99.90
4509;DHT22;2267;48.816;9.230;2023-01-05T04:45:49;12.20;99.90
4509;DHT22;2267;48.816;9.230;2023-01-05T04:48:15;12.20;99.90
4509;DHT22;2267;48.816;9.230;2023-01-05T04:50:42;12.20;99.90
4509;DHT22;2267;48.816;9.230;2023-01-05T04:53:10;12.20;99.90
4509;DHT22;2267;48.816;9.230;2023-01-05T04:55:36;12.20;99.90
4509;DHT22;2267;48.816;9.230;2023-01-05T04:58:03;12.20;99.90
4509;DHT22;2267;48.816;9.230;2023-01-05T05:00:37;12.30;99.90
4509;DHT22;2267;48.816;9.230;2023-01-05T05:03:04;12.30;99.90
4509;DHT22;2267;48.816;9.230;2023-01-05T05:05:31;12.20;99.90
4509;DHT22;2267;48.816;9.230;2023-01-05T05:07:58;12.30;99.90
4509;DHT22;2267;48.816;9.230;2023-01-05T05:10:25;12.30;99.90
4509;DHT22;2267;48.816;9.230;2023-01-05T05:12:52;12.30;99.90
4509;DHT22;2267;48.816;9.230;2023-01-05T05:15:19;12.30;99.90
4509;DHT22;2267;48.816;9.230;2023-01-05T05:17:45;12.30;99.90
4509;DHT22;2267;48.816;9.230;2023-01-05T05:20:12;12.30;99.90
4509;DHT22;2267;48.816;9.230;2023-01-05T05:22:39;12.30;99.90
4509;DHT22;2267;48.816;9.230;2023-01-05T05:25:06;12.30;99.90
4509;DHT22;2267;48.816;9.230;2023-01-05T05:27:33;12.30;99.90
4509;DHT22;2267;48.816;9.230;2023-01-05T05:30:00;12.30;99.90
4509;DHT22;2267;48.816;9.230;2023-01-05T05:32:27;12.30;99.90
4509;DHT22;2267;48.816;9.230;2023-01-05T05:34:54;12.30;99.90
4509;DHT22;2267;48.816;9.230;2023-01-05T05:37:21;12.20;99.90
4509;DHT22;2267;48.816;9.230;2023-01-05T05:39:47;12.20;99.90
4509;DHT22;2267;48.816;9.230;2023-01-05T05:42:14;12.20;99.90
4509;DHT22;2267;48.816;9.230;2023-01-05T05:44:41;12.20;99.90
4509;DHT22;2267;48.816;9.230;2023-01-05T05:47:08;12.10;99.90
4509;DHT22;2267;48.816;9.230;2023-01-05T05:49:34;12.10;99.90
4509;DHT22;2267;48.816;9.230;2023-01-05T05:52:01;12.10;99.90
4509;DHT22;2267;48.816;9.230;2023-01-05T05:54:28;12.20;99.90
4509;DHT22;2267;48.816;9.230;2023-01-05T05:56:55;12.10;99.90
4509;DHT22;2267;48.816;9.230;2023-01-05T05:59:22;12.10;99.90
4509;DHT22;2267;48.816;9.230;2023-01-05T06:01:48;12.10;99.90
4509;DHT22;2267;48.816;9.230;2023-01-05T06:04:15;12.10;99.90
4509;DHT22;2267;48.816;9.230;2023-01-05T06:06:43;12.10;99.90
4509;DHT22;2267;48.816;9.230;2023-01-05T06:09:10;12.10;99.90
4509;DHT22;2267;48.816;9.230;2023-01-05T06:11:37;12.00;99.90
4509;DHT22;2267;48.816;9.230;2023-01-05T06:14:04;12.00;99.90
4509;DHT22;2267;48.816;9.230;2023-01-05T06:16:31;12.00;99.90
4509;DHT22;2267;48.816;9.230;2023-01-05T06:18:58;12.00;99.90
4509;DHT22;2267;48.816;9.230;2023-01-05T06:21:25;11.90;99.90
4509;DHT22;2267;48.816;9.230;2023-01-05T06:23:51;11.90;99.90
4509;DHT22;2267;48.816;9.230;2023-01-05T06:26:18;11.90;99.90
4509;DHT22;2267;48.816;9.230;2023-01-05T06:28:45;11.90;99.90
4509;DHT22;2267;48.816;9.230;2023-01-05T06:31:12;11.90;99.90
4509;DHT22;2267;48.816;9.230;2023-01-05T06:33:39;11.90;99.90
4509;DHT22;2267;48.816;9.230;2023-01-05T06:36:06;11.80;99.90
4509;DHT22;2267;48.816;9.230;2023-01-05T06:38:33;11.80;99.90
4509;DHT22;2267;48.816;9.230;2023-01-05T06:40:59;11.80;99.90
4509;DHT22;2267;48.816;9.230;2023-01-05T06:43:26;11.80;99.90
4509;DHT22;2267;48.816;9.230;2023-01-05T06:45:53;11.70;99.90
4509;DHT22;2267;48.816;9.230;2023-01-05T06:48:20;11.70;99.90
4509;DHT22;2267;48.816;9.230;2023-01-05T06:50:47;11.70;99.90
4509;DHT22;2267;48.816;9.230;2023-01-05T06:53:13;11.70;99.90
4509;DHT22;2267;48.816;9.230;2023-01-05T06:55:40;11.70;99.90
4509;DHT22;2267;48.816;9.230;2023-01-05T06:58:07;11.60;99.90
4509;DHT22;2267;48.816;9.230;2023-01-05T07:00:34;11.60;99.90
4509;DHT22;2267;48.816;9.230;2023-01-05T07:03:00;11.60;99.90
4509;DHT22;2267;48.816;9.230;2023-01-05T07:05:27;11.60;99.90
4509;DHT22;2267;48.816;9.230;2023-01-05T07:07:54;11.60;99.90
4509;DHT22;2267;48.816;9.230;2023-01-05T07:10:21;11.60;99.90
4509;DHT22;2267;48.816;9.230;2023-01-05T07:12:48;11.60;99.90
4509;DHT22;2267;48.816;9.230;2023-01-05T07:15:14;11.60;99.90
4509;DHT22;2267;48.816;9.230;2023-01-05T07:17:41;11.60;99.90
4509;DHT22;2267;48.816;9.230;2023-01-05T07:20:08;11.60;99.90
4509;DHT22;2267;48.816;9.230;2023-01-05T07:22:35;11.60;99.90
4509;DHT22;2267;48.816;9.230;2023-01-05T07:25:01;11.60;99.90
4509;DHT22;2267;48.816;9.230;2023-01-05T07:27:28;11.70;99.90
4509;DHT22;2267;48.816;9.230;2023-01-05T07:29:55;11.70;99.90
4509;DHT22;2267;48.816;9.230;2023-01-05T07:32:22;11.70;99.90
4509;DHT22;2267;48.816;9.230;2023-01-05T07:34:49;11.70;99.90
4509;DHT22;2267;48.816;9.230;2023-01-05T07:37:21;11.70;99.90
4509;DHT22;2267;48.816;9.230;2023-01-05T07:39:50;11.70;99.90
4509;DHT22;2267;48.816;9.230;2023-01-05T07:42:17;11.70;99.90
4509;DHT22;2267;48.816;9.230;2023-01-05T07:44:44;11.70;99.90
4509;DHT22;2267;48.816;9.230;2023-01-05T07:47:11;11.80;99.90
4509;DHT22;2267;48.816;9.230;2023-01-05T07:49:37;11.80;99.90
4509;DHT22;2267;48.816;9.230;2023-01-05T07:52:04;11.80;99.90
4509;DHT22;2267;48.816;9.230;2023-01-05T07:54:31;11.80;99.90
4509;DHT22;2267;48.816;9.230;2023-01-05T07:56:58;11.80;99.90
4509;DHT22;2267;48.816;9.230;2023-01-05T07:59:25;11.90;99.90
4509;DHT22;2267;48.816;9.230;2023-01-05T08:01:51;11.90;99.90
4509;DHT22;2267;48.816;9.230;2023-01-05T08:04:18;11.90;99.90
4509;DHT22;2267;48.816;9.230;2023-01-05T08:06:45;11.90;99.90
4509;DHT22;2267;48.816;9.230;2023-01-05T08:09:12;12.00;99.90
4509;DHT22;2267;48.816;9.230;2023-01-05T08:11:57;11.90;99.90
4509;DHT22;2267;48.816;9.230;2023-01-05T08:14:24;11.90;99.90
4509;DHT22;2267;48.816;9.230;2023-01-05T08:16:51;11.90;99.90
4509;DHT22;2267;48.816;9.230;2023-01-05T08:19:18;11.90;99.90
4509;DHT22;2267;48.816;9.230;2023-01-05T08:21:45;11.90;99.90
4509;DHT22;2267;48.816;9.230;2023-01-05T08:24:11;11.90;99.90
4509;DHT22;2267;48.816;9.230;2023-01-05T08:26:38;11.90;99.90
4509;DHT22;2267;48.816;9.230;2023-01-05T08:29:05;11.80;99.90
4509;DHT22;2267;48.816;9.230;2023-01-05T08:31:32;11.80;99.90
4509;DHT22;2267;48.816;9.230;2023-01-05T08:34:04;11.80;99.90
4509;DHT22;2267;48.816;9.230;2023-01-05T08:36:31;11.80;99.90
4509;DHT22;2267;48.816;9.230;2023-01-05T08:38:59;11.90;99.90
4509;DHT22;2267;48.816;9.230;2023-01-05T08:41:30;11.90;99.90
4509;DHT22;2267;48.816;9.230;2023-01-05T08:43:59;11.90;99.90
4509;DHT22;2267;48.816;9.230;2023-01-05T08:46:29;11.90;99.90
4509;DHT22;2267;48.816;9.230;2023-01-05T08:48:57;11.90;99.90
4509;DHT22;2267;48.816;9.230;2023-01-05T08:51:26;11.90;99.90
4509;DHT22;2267;48.816;9.230;2023-01-05T08:53:53;11.90;99.90
4509;DHT22;2267;48.816;9.230;2023-01-05T08:56:22;12.00;99.90
4509;DHT22;2267;48.816;9.230;2023-01-05T08:58:51;12.00;99.90
4509;DHT22;2267;48.816;9.230;2023-01-05T09:01:19;12.00;99.90
4509;DHT22;2267;48.816;9.230;2023-01-05T09:03:49;12.00;99.90
4509;DHT22;2267;48.816;9.230;2023-01-05T09:06:16;12.00;99.90
4509;DHT22;2267;48.816;9.230;2023-01-05T09:08:44;12.00;99.90
4509;DHT22;2267;48.816;9.230;2023-01-05T09:11:17;12.00;99.90
4509;DHT22;2267;48.816;9.230;2023-01-05T09:13:49;12.00;99.90
4509;DHT22;2267;48.816;9.230;2023-01-05T09:16:19;12.00;99.90
4509;DHT22;2267;48.816;9.230;2023-01-05T09:19:06;12.00;99.90
4509;DHT22;2267;48.816;9.230;2023-01-05T09:21:33;12.00;99.90
4509;DHT22;2267;48.816;9.230;2023-01-05T09:24:00;12.00;99.90
4509;DHT22;2267;48.816;9.230;2023-01-05T09:26:26;12.00;99.90
4509;DHT22;2267;48.816;9.230;2023-01-05T09:28:53;12.00;99.90
4509;DHT22;2267;48.816;9.230;2023-01-05T09:31:21;12.10;99.90
4509;DHT22;2267;48.816;9.230;2023-01-05T09:33:48;12.10;99.90
4509;DHT22;2267;48.816;9.230;2023-01-05T09:36:17;12.10;99.90
4509;DHT22;2267;48.816;9.230;2023-01-05T09:38:48;12.10;99.90
4509;DHT22;2267;48.816;9.230;2023-01-05T09:41:43;12.10;99.90
4509;DHT22;2267;48.816;9.230;2023-01-05T09:44:34;12.30;99.90
4509;DHT22;2267;48.816;9.230;2023-01-05T09:49:40;12.10;99.90
4509;DHT22;2267;48.816;9.230;2023-01-05T09:52:09;12.10;99.90
4509;DHT22;2267;48.816;9.230;2023-01-05T09:54:38;12.10;99.90
4509;DHT22;2267;48.816;9.230;2023-01-05T09:57:23;12.10;99.90
4509;DHT22;2267;48.816;9.230;2023-01-05T09:59:52;12.10;99.90
4509;DHT22;2267;48.816;9.230;2023-01-05T10:05:20;12.20;99.90
4509;DHT22;2267;48.816;9.230;2023-01-05T10:07:53;12.20;99.90
4509;DHT22;2267;48.816;9.230;2023-01-05T10:10:44;12.20;99.90
4509;DHT22;2267;48.816;9.230;2023-01-05T10:13:23;12.20;99.90
4509;DHT22;2267;48.816;9.230;2023-01-05T10:15:53;12.20;99.90
4509;DHT22;2267;48.816;9.230;2023-01-05T10:18:26;12.20;99.90
4509;DHT22;2267;48.816;9.230;2023-01-05T10:21:14;12.30;99.90
4509;DHT22;2267;48.816;9.230;2023-01-05T10:24:03;12.30;99.90
4509;DHT22;2267;48.816;9.230;2023-01-05T10:32:59;12.30;99.90
4509;DHT22;2267;48.816;9.230;2023-01-05T10:35:56;12.30;99.90
4509;DHT22;2267;48.816;9.230;2023-01-05T10:41:49;12.30;99.90
4509;DHT22;2267;48.816;9.230;2023-01-05T10:47:02;12.40;99.90
4509;DHT22;2267;48.816;9.230;2023-01-05T10:49:32;12.40;99.90
4509;DHT22;2267;48.816;9.230;2023-01-05T10:52:00;12.40;99.90
4509;DHT22;2267;48.816;9.230;2023-01-05T10:54:39;12.40;99.90
4509;DHT22;2267;48.816;9.230;2023-01-05T11:00:10;12.40;99.90
4509;DHT22;2267;48.816;9.230;2023-01-05T11:02:45;12.40;99.90
4509;DHT22;2267;48.816;9.230;2023-01-05T11:05:37;12.40;99.90
4509;DHT22;2267;48.816;9.230;2023-01-05T11:08:14;12.40;99.90
4509;DHT22;2267;48.816;9.230;2023-01-05T11:10:57;12.40;99.90
4509;DHT22;2267;48.816;9.230;2023-01-05T11:13:36;12.40;99.90
4509;DHT22;2267;48.816;9.230;2023-01-05T11:16:11;12.50;99.90
4509;DHT22;2267;48.816;9.230;2023-01-05T11:18:56;12.40;99.90
4509;DHT22;2267;48.816;9.230;2023-01-05T11:21:44;12.40;99.90
4509;DHT22;2267;48.816;9.230;2023-01-05T11:26:52;12.40;99.90
4509;DHT22;2267;48.816;9.230;2023-01-05T11:29:19;12.40;99.90
4509;DHT22;2267;48.816;9.230;2023-01-05T11:37:04;12.40;99.90
4509;DHT22;2267;48.816;9.230;2023-01-05T11:39:38;12.50;99.90
4509;DHT22;2267;48.816;9.230;2023-01-05T11:42:08;12.50;99.90
4509;DHT22;2267;48.816;9.230;2023-01-05T11:44:35;12.50;99.90
4509;DHT22;2267;48.816;9.230;2023-01-05T11:47:04;12.50;99.90
4509;DHT22;2267;48.816;9.230;2023-01-05T11:49:32;12.50;99.90
4509;DHT22;2267;48.816;9.230;2023-01-05T11:51:59;12.50;99.90
4509;DHT22;2267;48.816;9.230;2023-01-05T11:54:36;12.50;99.90
4509;DHT22;2267;48.816;9.230;2023-01-05T11:57:16;12.60;99.90
4509;DHT22;2267;48.816;9.230;2023-01-05T11:59:48;12.60;99.90
4509;DHT22;2267;48.816;9.230;2023-01-05T12:02:47;12.80;99.90
4509;DHT22;2267;48.816;9.230;2023-01-05T12:07:47;12.60;99.90
4509;DHT22;2267;48.816;9.230;2023-01-05T12:10:29;12.50;99.90
4509;DHT22;2267;48.816;9.230;2023-01-05T12:15:47;12.60;99.90
4509;DHT22;2267;48.816;9.230;2023-01-05T12:21:24;12.60;99.90
4509;DHT22;2267;48.816;9.230;2023-01-05T12:24:34;12.60;99.90
4509;DHT22;2267;48.816;9.230;2023-01-05T12:33:07;12.70;99.90
4509;DHT22;2267;48.816;9.230;2023-01-05T12:49:31;12.60;99.90
4509;DHT22;2267;48.816;9.230;2023-01-05T12:57:50;12.60;99.90
4509;DHT22;2267;48.816;9.230;2023-01-05T13:00:20;12.60;99.90
4509;DHT22;2267;48.816;9.230;2023-01-05T13:02:53;12.60;99.90
4509;DHT22;2267;48.816;9.230;2023-01-05T13:10:27;12.60;99.90
4509;DHT22;2267;48.816;9.230;2023-01-05T13:13:11;12.60;99.90
4509;DHT22;2267;48.816;9.230;2023-01-05T13:15:45;12.60;99.90
4509;DHT22;2267;48.816;9.230;2023-01-05T13:18:18;12.60;99.90
4509;DHT22;2267;48.816;9.230;2023-01-05T13:21:01;12.60;99.90
4509;DHT22;2267;48.816;9.230;2023-01-05T13:23:45;12.60;99.90
4509;DHT22;2267;48.816;9.230;2023-01-05T13:26:17;12.60;99.90
4509;DHT22;2267;48.816;9.230;2023-01-05T13:28:50;12.60;99.90
4509;DHT22;2267;48.816;9.230;2023-01-05T13:39:39;12.60;99.90
4509;DHT22;2267;48.816;9.230;2023-01-05T13:45:26;12.60;99.90
4509;DHT22;2267;48.816;9.230;2023-01-05T13:48:06;12.60;99.90
4509;DHT22;2267;48.816;9.230;2023-01-05T13:53:21;12.60;99.90
4509;DHT22;2267;48.816;9.230;2023-01-05T13:55:59;12.60;99.90
4509;DHT22;2267;48.816;9.230;2023-01-05T13:58:43;12.60;99.90
4509;DHT22;2267;48.816;9.230;2023-01-05T14:01:31;12.60;99.90
4509;DHT22;2267;48.816;9.230;2023-01-05T14:03:59;12.60;99.90
4509;DHT22;2267;48.816;9.230;2023-01-05T14:06:28;12.60;99.90
4509;DHT22;2267;48.816;9.230;2023-01-05T14:09:05;12.60;99.90
4509;DHT22;2267;48.816;9.230;2023-01-05T14:11:33;12.60;99.90
4509;DHT22;2267;48.816;9.230;2023-01-05T14:14:04;12.60;99.90
4509;DHT22;2267;48.816;9.230;2023-01-05T14:24:40;12.60;99.90
4509;DHT22;2267;48.816;9.230;2023-01-05T14:27:17;12.60;99.90
4509;DHT22;2267;48.816;9.230;2023-01-05T14:34:52;12.50;99.90
4509;DHT22;2267;48.816;9.230;2023-01-05T14:37:24;12.50;99.90
4509;DHT22;2267;48.816;9.230;2023-01-05T14:39:52;12.60;99.90
4509;DHT22;2267;48.816;9.230;2023-01-05T14:42:36;12.50;99.90
4509;DHT22;2267;48.816;9.230;2023-01-05T14:45:08;12.60;99.90
4509;DHT22;2267;48.816;9.230;2023-01-05T14:47:46;12.50;99.90
4509;DHT22;2267;48.816;9.230;2023-01-05T14:50:43;12.60;99.90
4509;DHT22;2267;48.816;9.230;2023-01-05T14:53:40;12.60;99.90
4509;DHT22;2267;48.816;9.230;2023-01-05T15:04:06;12.60;99.90
4509;DHT22;2267;48.816;9.230;2023-01-05T15:15:42;12.60;99.90
4509;DHT22;2267;48.816;9.230;2023-01-05T15:21:25;12.60;99.90
4509;DHT22;2267;48.816;9.230;2023-01-05T15:33:17;12.60;99.90
4509;DHT22;2267;48.816;9.230;2023-01-05T15:35:56;12.60;99.90
4509;DHT22;2267;48.816;9.230;2023-01-05T15:38:28;12.60;99.90
4509;DHT22;2267;48.816;9.230;2023-01-05T15:41:09;12.60;99.90
4509;DHT22;2267;48.816;9.230;2023-01-05T15:43:39;12.60;99.90
4509;DHT22;2267;48.816;9.230;2023-01-05T15:46:07;12.60;99.90
4509;DHT22;2267;48.816;9.230;2023-01-05T15:51:04;12.60;99.90
4509;DHT22;2267;48.816;9.230;2023-01-05T15:53:37;12.60;99.90
4509;DHT22;2267;48.816;9.230;2023-01-05T15:56:26;12.70;99.90
4509;DHT22;2267;48.816;9.230;2023-01-05T15:58:54;12.70;99.90
4509;DHT22;2267;48.816;9.230;2023-01-05T16:01:21;12.70;99.90
4509;DHT22;2267;48.816;9.230;2023-01-05T16:03:48;12.70;99.90
4509;DHT22;2267;48.816;9.230;2023-01-05T16:06:22;12.70;99.90
4509;DHT22;2267;48.816;9.230;2023-01-05T16:08:52;12.70;99.90
4509;DHT22;2267;48.816;9.230;2023-01-05T16:11:32;12.70;99.90
4509;DHT22;2267;48.816;9.230;2023-01-05T16:14:14;12.70;99.90
4509;DHT22;2267;48.816;9.230;2023-01-05T16:16:52;12.70;99.90
4509;DHT22;2267;48.816;9.230;2023-01-05T16:19:38;12.70;99.90
4509;DHT22;2267;48.816;9.230;2023-01-05T16:27:17;12.70;99.90
4509;DHT22;2267;48.816;9.230;2023-01-05T16:29:46;12.70;99.90
4509;DHT22;2267;48.816;9.230;2023-01-05T16:32:42;12.70;99.90
4509;DHT22;2267;48.816;9.230;2023-01-05T16:38:00;12.60;99.90
4509;DHT22;2267;48.816;9.230;2023-01-05T16:40:27;12.70;99.90
4509;DHT22;2267;48.816;9.230;2023-01-05T16:42:54;12.70;99.90
4509;DHT22;2267;48.816;9.230;2023-01-05T16:45:31;12.70;99.90
4509;DHT22;2267;48.816;9.230;2023-01-05T16:47:59;12.70;99.90
4509;DHT22;2267;48.816;9.230;2023-01-05T16:55:32;12.70;99.90
4509;DHT22;2267;48.816;9.230;2023-01-05T16:58:32;12.70;99.90
4509;DHT22;2267;48.816;9.230;2023-01-05T17:00:52;12.70;99.90
4509;DHT22;2267;48.816;9.230;2023-01-05T17:03:31;12.70;99.90
4509;DHT22;2267;48.816;9.230;2023-01-05T17:05:59;12.70;99.90
4509;DHT22;2267;48.816;9.230;2023-01-05T17:08:28;12.70;99.90
4509;DHT22;2267;48.816;9.230;2023-01-05T17:10:58;12.70;99.90
4509;DHT22;2267;48.816;9.230;2023-01-05T17:13:40;12.70;99.90
4509;DHT22;2267;48.816;9.230;2023-01-05T17:16:10;12.60;99.90
4509;DHT22;2267;48.816;9.230;2023-01-05T17:18:37;12.70;99.90
4509;DHT22;2267;48.816;9.230;2023-01-05T17:21:04;12.70;99.90
4509;DHT22;2267;48.816;9.230;2023-01-05T17:23:40;12.70;99.90
4509;DHT22;2267;48.816;9.230;2023-01-05T17:26:36;12.60;99.90
4509;DHT22;2267;48.816;9.230;2023-01-05T17:29:05;12.70;99.90
4509;DHT22;2267;48.816;9.230;2023-01-05T17:31:33;12.60;99.90
4509;DHT22;2267;48.816;9.230;2023-01-05T17:34:00;12.60;99.90
4509;DHT22;2267;48.816;9.230;2023-01-05T17:36:31;12.70;99.90
4509;DHT22;2267;48.816;9.230;2023-01-05T17:38:59;12.60;99.90
4509;DHT22;2267;48.816;9.230;2023-01-05T17:41:26;12.60;99.90
4509;DHT22;2267;48.816;9.230;2023-01-05T17:43:52;12.60;99.90
4509;DHT22;2267;48.816;9.230;2023-01-05T17:46:23;12.60;99.90
4509;DHT22;2267;48.816;9.230;2023-01-05T17:48:53;12.60;99.90
4509;DHT22;2267;48.816;9.230;2023-01-05T17:51:20;12.60;99.90
4509;DHT22;2267;48.816;9.230;2023-01-05T17:53:47;12.60;99.90
4509;DHT22;2267;48.816;9.230;2023-01-05T17:56:14;12.60;99.90
4509;DHT22;2267;48.816;9.230;2023-01-05T17:58:44;12.60;99.90
4509;DHT22;2267;48.816;9.230;2023-01-05T18:01:10;12.60;99.90
4509;DHT22;2267;48.816;9.230;2023-01-05T18:03:37;12.60;99.90
4509;DHT22;2267;48.816;9.230;2023-01-05T18:06:04;12.60;99.90
4509;DHT22;2267;48.816;9.230;2023-01-05T18:08:31;12.60;99.90
4509;DHT22;2267;48.816;9.230;2023-01-05T18:11:06;12.50;99.90
4509;DHT22;2267;48.816;9.230;2023-01-05T18:13:34;12.50;99.90
4509;DHT22;2267;48.816;9.230;2023-01-05T18:16:05;12.50;99.90
4509;DHT22;2267;48.816;9.230;2023-01-05T18:18:33;12.50;99.90
4509;DHT22;2267;48.816;9.230;2023-01-05T18:21:05;12.50;99.90
4509;DHT22;2267;48.816;9.230;2023-01-05T18:23:32;12.50;99.90
4509;DHT22;2267;48.816;9.230;2023-01-05T18:26:04;12.50;99.90
4509;DHT22;2267;48.816;9.230;2023-01-05T18:28:31;12.40;99.90
4509;DHT22;2267;48.816;9.230;2023-01-05T18:30:58;12.40;99.90
4509;DHT22;2267;48.816;9.230;2023-01-05T18:33:27;12.40;99.90
4509;DHT22;2267;48.816;9.230;2023-01-05T18:35:54;12.40;99.90
4509;DHT22;2267;48.816;9.230;2023-01-05T18:38:25;12.40;99.90
4509;DHT22;2267;48.816;9.230;2023-01-05T18:40:52;12.40;99.90
4509;DHT22;2267;48.816;9.230;2023-01-05T18:43:19;12.30;99.90
4509;DHT22;2267;48.816;9.230;2023-01-05T18:45:53;12.30;99.90
4509;DHT22;2267;48.816;9.230;2023-01-05T18:48:20;12.30;99.90
4509;DHT22;2267;48.816;9.230;2023-01-05T18:50:47;12.30;99.90
4509;DHT22;2267;48.816;9.230;2023-01-05T18:53:18;12.20;99.90
4509;DHT22;2267;48.816;9.230;2023-01-05T18:55:46;12.20;99.90
4509;DHT22;2267;48.816;9.230;2023-01-05T18:58:14;12.20;99.90
4509;DHT22;2267;48.816;9.230;2023-01-05T19:00:42;12.20;99.90
4509;DHT22;2267;48.816;9.230;2023-01-05T19:03:10;12.20;99.90
4509;DHT22;2267;48.816;9.230;2023-01-05T19:05:41;12.20;99.90
4509;DHT22;2267;48.816;9.230;2023-01-05T19:08:10;12.20;99.90
4509;DHT22;2267;48.816;9.230;2023-01-05T19:10:37;12.10;99.90
4509;DHT22;2267;48.816;9.230;2023-01-05T19:13:04;12.10;99.90